createdAt,value
2023-04-16T00:01:57.823Z,99.99
2023-04-16T00:04:26.448Z,99.99
2023-04-16T00:06:56.555Z,99.83
2023-04-16T00:09:26.833Z,99.85
2023-04-16T00:12:00.495Z,99.94
2023-04-16T00:14:30.372Z,99.99
2023-04-16T00:17:00.256Z,99.99
2023-04-16T00:19:33.181Z,99.99
2023-04-16T00:22:02.246Z,99.99
2023-04-16T00:24:35.773Z,99.99
2023-04-16T00:27:07.659Z,99.99
2023-04-16T00:29:36.221Z,99.99
2023-04-16T00:32:04.525Z,99.99
2023-04-16T00:34:33.813Z,99.99
2023-04-16T00:37:02.432Z,99.99
2023-04-16T00:39:32.122Z,99.99
2023-04-16T00:42:02.008Z,99.99
2023-04-16T00:44:31.811Z,99.99
2023-04-16T00:47:02.164Z,99.99
2023-04-16T00:49:32.766Z,99.99
2023-04-16T00:52:04.018Z,99.99
2023-04-16T00:54:36.648Z,99.99
2023-04-16T00:57:06.234Z,99.99
2023-04-16T00:59:37.485Z,99.99
2023-04-16T01:02:06.397Z,99.99
2023-04-16T01:04:34.832Z,99.86
2023-04-16T01:07:03.318Z,99.99
2023-04-16T01:09:32.121Z,99.86
2023-04-16T01:12:01.650Z,99.99
2023-04-16T01:14:32.754Z,99.99
2023-04-16T01:17:03.915Z,99.99
2023-04-16T01:19:36.364Z,99.99
2023-04-16T01:22:07.839Z,99.99
2023-04-16T01:24:36.109Z,99.71
2023-04-16T01:27:05.480Z,99.99
2023-04-16T01:29:35.300Z,99.76
2023-04-16T01:32:04.007Z,99.95
2023-04-16T01:34:34.073Z,99.99
2023-04-16T01:37:02.239Z,99.99
2023-04-16T01:39:34.190Z,99.63
2023-04-16T01:42:08.057Z,99.75
2023-04-16T01:44:37.357Z,99.96
2023-04-16T01:47:06.986Z,99.33
2023-04-16T01:49:37.867Z,99.32
2023-04-16T01:52:08.660Z,99.99
2023-04-16T01:54:39.770Z,99.99
2023-04-16T01:57:08.331Z,99.99
2023-04-16T01:59:39.416Z,99.99
2023-04-16T02:02:11.425Z,99.99
2023-04-16T02:04:40.821Z,99.99
2023-04-16T02:07:10.638Z,99.99
2023-04-16T02:09:42.803Z,99.99
2023-04-16T02:12:11.964Z,99.99
2023-04-16T02:14:40.075Z,99.99
2023-04-16T02:17:09.776Z,99.99
2023-04-16T02:19:38.367Z,99.99
2023-04-16T02:22:07.107Z,99.99
2023-04-16T02:24:37.701Z,99.99
2023-04-16T02:27:08.261Z,99.99
2023-04-16T02:29:38.809Z,99.99
2023-04-16T02:32:08.260Z,99.99
2023-04-16T02:34:40.288Z,99.99
2023-04-16T02:37:08.686Z,99.99
2023-04-16T02:39:37.098Z,99.99
2023-04-16T02:42:06.754Z,99.99
2023-04-16T02:44:38.638Z,99.99
2023-04-16T02:47:08.569Z,99.99
2023-04-16T02:49:36.853Z,99.99
2023-04-16T02:52:05.526Z,99.99
2023-04-16T02:54:33.559Z,99.99
2023-04-16T02:57:02.803Z,99.99
2023-04-16T02:59:32.323Z,99.99
2023-04-16T03:02:02.402Z,99.99
2023-04-16T03:04:34.294Z,99.99
2023-04-16T03:07:03.859Z,99.99
2023-04-16T03:09:32.401Z,99.99
2023-04-16T03:12:01.800Z,99.99
2023-04-16T03:14:30.402Z,99.99
2023-04-16T03:16:58.806Z,99.99
2023-04-16T03:19:34.908Z,99.99
2023-04-16T03:22:04.126Z,99.99
2023-04-16T03:24:34.090Z,99.99
2023-04-16T03:27:03.095Z,99.99
2023-04-16T03:29:31.926Z,99.99
2023-04-16T03:31:59.837Z,99.99
2023-04-16T03:34:28.147Z,99.99
2023-04-16T03:36:59.444Z,99.99
2023-04-16T03:39:30.611Z,99.99
2023-04-16T03:41:59.509Z,99.99
2023-04-16T03:44:28.291Z,99.99
2023-04-16T03:46:57.589Z,99.99
2023-04-16T03:49:27.538Z,99.99
2023-04-16T03:51:55.682Z,99.99
2023-04-16T03:54:25.240Z,99.99
2023-04-16T03:56:54.335Z,99.99
2023-04-16T03:59:22.778Z,99.99
2023-04-16T04:01:51.340Z,99.99
2023-04-16T04:04:19.868Z,99.99
2023-04-16T04:06:48.120Z,99.99
2023-04-16T04:09:17.606Z,99.99
2023-04-16T04:11:48.921Z,99.99
2023-04-16T04:14:17.841Z,99.99
2023-04-16T04:16:46.876Z,99.99
2023-04-16T04:19:14.900Z,99.99
2023-04-16T04:21:43.686Z,99.99
2023-04-16T04:24:12.096Z,99.99
2023-04-16T04:26:40.459Z,99.99
2023-04-16T04:29:11.193Z,99.99
2023-04-16T04:31:41.174Z,99.99
2023-04-16T04:34:11.350Z,99.99
2023-04-16T04:36:40.502Z,99.99
2023-04-16T04:39:09.370Z,99.99
2023-04-16T04:41:38.726Z,99.99
2023-04-16T04:44:06.974Z,99.99
2023-04-16T04:46:37.823Z,99.99
2023-04-16T04:49:07.999Z,99.99
2023-04-16T04:51:36.515Z,99.99
2023-04-16T04:54:11.531Z,99.99
2023-04-16T04:56:40.037Z,99.99
2023-04-16T04:59:12.584Z,99.99
2023-04-16T05:01:44.993Z,99.99
2023-04-16T05:04:13.534Z,99.99
2023-04-16T05:06:42.537Z,99.99
2023-04-16T05:09:12.058Z,99.91
2023-04-16T05:11:47.401Z,99.58
2023-04-16T05:14:16.893Z,99.50
2023-04-16T05:16:47.043Z,99.34
2023-04-16T05:19:15.569Z,98.84
2023-04-16T05:21:48.484Z,98.39
2023-04-16T05:24:19.239Z,98.30
2023-04-16T05:26:48.480Z,98.96
2023-04-16T05:29:17.993Z,98.71
2023-04-16T05:31:49.521Z,98.45
2023-04-16T05:34:18.896Z,97.81
2023-04-16T05:36:47.012Z,97.74
2023-04-16T05:39:18.605Z,98.04
2023-04-16T05:41:47.667Z,97.66
2023-04-16T05:44:17.987Z,97.11
2023-04-16T05:46:48.019Z,97.02
2023-04-16T05:49:19.062Z,97.08
2023-04-16T05:51:47.406Z,96.85
2023-04-16T05:54:16.335Z,96.41
2023-04-16T05:56:44.632Z,96.87
2023-04-16T05:59:12.674Z,96.91
2023-04-16T06:01:40.973Z,96.59
2023-04-16T06:04:10.968Z,96.05
2023-04-16T06:06:42.319Z,96.27
2023-04-16T06:09:10.840Z,95.97
2023-04-16T06:11:39.431Z,96.03
2023-04-16T06:14:09.530Z,95.76
2023-04-16T06:16:39.428Z,95.38
2023-04-16T06:19:08.130Z,94.58
2023-04-16T06:21:38.967Z,94.04
2023-04-16T06:24:07.981Z,94.11
2023-04-16T06:26:37.316Z,93.09
2023-04-16T06:29:05.589Z,92.92
2023-04-16T06:31:33.978Z,93.08
2023-04-16T06:34:05.111Z,92.65
2023-04-16T06:36:33.826Z,92.75
2023-04-16T06:39:06.588Z,91.85
2023-04-16T06:41:35.489Z,91.52
2023-04-16T06:44:03.654Z,90.19
2023-04-16T06:46:32.473Z,90.32
2023-04-16T06:49:00.831Z,89.99
2023-04-16T06:51:28.910Z,89.65
2023-04-16T06:53:57.231Z,89.27
2023-04-16T06:56:28.485Z,88.34
2023-04-16T06:58:59.310Z,89.40
2023-04-16T07:01:31.761Z,88.39
2023-04-16T07:04:00.145Z,88.09
2023-04-16T07:06:28.655Z,87.76
2023-04-16T07:08:58.740Z,87.75
2023-04-16T07:11:28.767Z,88.03
2023-04-16T07:13:57.809Z,86.81
2023-04-16T07:16:26.088Z,86.23
2023-04-16T07:18:55.031Z,86.27
2023-04-16T07:21:23.871Z,85.64
2023-04-16T07:23:54.083Z,85.32
2023-04-16T07:26:22.337Z,85.39
2023-04-16T07:28:52.007Z,84.98
2023-04-16T07:31:20.841Z,84.69
2023-04-16T07:33:52.449Z,84.62
2023-04-16T07:36:21.479Z,85.26
2023-04-16T07:38:50.377Z,84.62
2023-04-16T07:41:19.394Z,84.58
2023-04-16T07:43:47.458Z,84.38
2023-04-16T07:46:17.305Z,84.48
2023-04-16T07:48:46.690Z,83.40
2023-04-16T07:51:14.955Z,83.42
2023-04-16T07:53:43.689Z,83.62
2023-04-16T07:56:11.981Z,84.18
2023-04-16T07:58:40.025Z,83.31
2023-04-16T08:01:09.888Z,82.80
2023-04-16T08:03:40.515Z,82.62
2023-04-16T08:06:08.910Z,81.67
2023-04-16T08:08:41.532Z,79.77
2023-04-16T08:11:09.929Z,80.67
2023-04-16T08:13:39.499Z,80.71
2023-04-16T08:16:11.512Z,80.30
2023-04-16T08:18:44.859Z,80.08
2023-04-16T08:21:13.653Z,80.83
2023-04-16T08:23:42.456Z,79.84
2023-04-16T08:26:10.603Z,80.14
2023-04-16T08:28:39.802Z,80.34
2023-04-16T08:31:08.318Z,79.72
2023-04-16T08:33:36.524Z,78.89
2023-04-16T08:36:07.191Z,78.40
2023-04-16T08:38:35.615Z,78.08
2023-04-16T08:41:08.036Z,78.70
2023-04-16T08:43:37.437Z,78.46
2023-04-16T08:46:06.341Z,77.73
2023-04-16T08:48:35.289Z,77.42
2023-04-16T08:51:04.511Z,77.35
2023-04-16T08:53:37.455Z,76.58
2023-04-16T08:56:06.739Z,77.53
2023-04-16T08:58:35.794Z,78.47
2023-04-16T09:01:06.027Z,77.77
2023-04-16T09:03:36.965Z,75.63
2023-04-16T09:06:05.812Z,76.84
2023-04-16T09:08:39.470Z,75.51
2023-04-16T09:11:08.511Z,76.22
2023-04-16T09:13:39.723Z,74.18
2023-04-16T09:16:09.267Z,70.58
2023-04-16T09:18:38.388Z,68.48
2023-04-16T09:21:11.140Z,68.42
2023-04-16T09:23:41.900Z,69.63
2023-04-16T09:26:11.708Z,70.40
2023-04-16T09:28:42.638Z,69.14
2023-04-16T09:31:12.575Z,69.22
2023-04-16T09:33:41.274Z,68.59
2023-04-16T09:36:11.760Z,68.64
2023-04-16T09:38:51.375Z,67.50
2023-04-16T09:41:26.035Z,68.28
2023-04-16T09:44:00.549Z,68.45
2023-04-16T09:46:32.315Z,68.07
2023-04-16T09:49:07.348Z,65.94
2023-04-16T09:51:40.739Z,67.22
2023-04-16T09:54:11.007Z,67.06
2023-04-16T09:56:41.765Z,68.60
2023-04-16T09:59:10.863Z,67.99
2023-04-16T10:01:40.796Z,69.24
2023-04-16T10:04:12.080Z,68.19
2023-04-16T10:06:40.333Z,67.73
2023-04-16T10:09:09.144Z,68.23
2023-04-16T10:11:40.590Z,67.77
2023-04-16T10:14:10.467Z,68.23
2023-04-16T10:16:41.755Z,68.62
2023-04-16T10:19:10.304Z,68.40
2023-04-16T10:21:38.676Z,68.42
2023-04-16T10:24:08.426Z,68.04
2023-04-16T10:26:36.819Z,68.31
2023-04-16T10:29:07.929Z,69.07
2023-04-16T10:31:36.952Z,69.21
2023-04-16T10:34:06.738Z,66.77
2023-04-16T10:36:38.322Z,67.49
2023-04-16T10:39:11.091Z,65.32
2023-04-16T10:41:40.032Z,63.63
2023-04-16T10:44:11.097Z,64.39
2023-04-16T10:46:39.800Z,62.86
2023-04-16T10:49:15.989Z,64.51
2023-04-16T10:51:53.476Z,64.23
2023-04-16T10:54:24.640Z,64.64
2023-04-16T10:56:53.370Z,62.73
2023-04-16T10:59:24.186Z,62.31
2023-04-16T11:01:54.893Z,62.01
2023-04-16T11:04:31.460Z,59.45
2023-04-16T11:07:02.330Z,60.66
2023-04-16T11:09:47.694Z,61.96
2023-04-16T11:12:18.682Z,63.01
2023-04-16T11:14:50.498Z,60.83
2023-04-16T11:17:19.055Z,59.57
2023-04-16T11:19:50.409Z,60.14
2023-04-16T11:22:22.184Z,57.48
2023-04-16T11:24:55.475Z,59.76
2023-04-16T11:27:23.810Z,60.78
2023-04-16T11:30:00.548Z,60.10
2023-04-16T11:32:30.185Z,60.26
2023-04-16T11:35:00.554Z,56.94
2023-04-16T11:37:33.994Z,57.30
2023-04-16T11:40:02.630Z,58.21
2023-04-16T11:42:30.926Z,55.99
2023-04-16T11:45:01.791Z,56.56
2023-04-16T11:47:32.467Z,56.44
2023-04-16T11:50:15.869Z,54.75
2023-04-16T11:52:43.836Z,55.68
2023-04-16T11:55:12.793Z,56.95
2023-04-16T11:57:41.607Z,57.49
2023-04-16T12:00:14.176Z,59.09
2023-04-16T12:02:43.284Z,59.75
2023-04-16T12:05:27.786Z,58.70
2023-04-16T12:07:56.750Z,58.10
2023-04-16T12:10:27.824Z,56.64
2023-04-16T12:13:11.526Z,57.43
2023-04-16T12:15:51.065Z,55.33
2023-04-16T12:18:23.179Z,54.44
2023-04-16T12:20:52.177Z,53.47
2023-04-16T12:23:24.313Z,54.76
2023-04-16T12:25:52.268Z,55.35
2023-04-16T12:28:38.528Z,53.34
2023-04-16T12:31:08.575Z,53.08
2023-04-16T12:33:36.738Z,53.59
2023-04-16T12:36:24.759Z,56.05
2023-04-16T12:38:53.176Z,54.20
2023-04-16T12:41:21.197Z,53.35
2023-04-16T12:43:49.400Z,53.35
2023-04-16T12:46:18.905Z,56.26
2023-04-16T12:48:47.068Z,52.58
2023-04-16T12:51:15.225Z,53.12
2023-04-16T12:53:44.134Z,52.89
2023-04-16T12:56:13.011Z,51.77
2023-04-16T12:58:43.616Z,51.51
2023-04-16T13:01:13.150Z,52.12
2023-04-16T13:03:43.698Z,51.71
2023-04-16T13:06:12.583Z,51.16
2023-04-16T13:08:47.881Z,51.48
2023-04-16T13:11:16.269Z,52.47
2023-04-16T13:13:45.100Z,51.28
2023-04-16T13:16:14.253Z,51.20
2023-04-16T13:18:44.205Z,50.39
2023-04-16T13:21:13.221Z,49.68
2023-04-16T13:23:41.449Z,50.75
2023-04-16T13:26:09.772Z,51.48
2023-04-16T13:28:39.336Z,52.57
2023-04-16T13:31:09.055Z,52.53
2023-04-16T13:33:38.562Z,51.71
2023-04-16T13:36:09.032Z,51.89
2023-04-16T13:38:39.591Z,51.64
2023-04-16T13:41:07.896Z,51.12
2023-04-16T13:43:37.471Z,52.21
2023-04-16T13:46:07.016Z,51.40
2023-04-16T13:48:40.685Z,51.48
2023-04-16T13:51:10.912Z,51.34
2023-04-16T13:53:42.855Z,50.81
2023-04-16T13:56:12.022Z,51.72
2023-04-16T13:58:41.504Z,49.89
2023-04-16T14:01:11.234Z,50.64
2023-04-16T14:03:40.917Z,51.84
2023-04-16T14:06:11.723Z,50.95
2023-04-16T14:08:44.762Z,49.64
2023-04-16T14:11:12.993Z,50.75
2023-04-16T14:13:44.571Z,50.67
2023-04-16T14:16:16.966Z,51.05
2023-04-16T14:18:48.929Z,48.85
2023-04-16T14:21:19.551Z,51.24
2023-04-16T14:23:48.127Z,50.10
2023-04-16T14:26:16.875Z,50.12
2023-04-16T14:28:45.900Z,49.28
2023-04-16T14:31:15.263Z,49.30
2023-04-16T14:33:43.785Z,48.28
2023-04-16T14:36:14.663Z,49.15
2023-04-16T14:38:47.520Z,49.44
2023-04-16T14:41:17.730Z,48.58
2023-04-16T14:43:47.093Z,48.35
2023-04-16T14:46:18.065Z,48.63
2023-04-16T14:48:47.779Z,47.26
2023-04-16T14:51:17.372Z,46.97
2023-04-16T14:53:49.001Z,45.37
2023-04-16T14:56:17.177Z,46.42
2023-04-16T14:58:45.542Z,47.63
2023-04-16T15:01:17.226Z,48.55
2023-04-16T15:03:46.033Z,51.29
2023-04-16T15:06:16.586Z,51.22
2023-04-16T15:08:45.167Z,52.41
2023-04-16T15:11:15.374Z,51.31
2023-04-16T15:13:43.556Z,50.35
2023-04-16T15:16:14.581Z,51.21
2023-04-16T15:18:43.277Z,51.25
2023-04-16T15:21:12.760Z,50.97
2023-04-16T15:23:43.128Z,51.63
2023-04-16T15:26:12.001Z,52.28
2023-04-16T15:28:41.714Z,52.70
2023-04-16T15:31:10.276Z,53.79
2023-04-16T15:33:42.277Z,54.37
2023-04-16T15:36:12.164Z,54.91
2023-04-16T15:38:42.264Z,53.81
2023-04-16T15:41:11.607Z,54.22
2023-04-16T15:43:42.635Z,54.86
2023-04-16T15:46:11.171Z,55.22
2023-04-16T15:48:45.852Z,56.36
2023-04-16T15:51:15.291Z,55.42
2023-04-16T15:53:45.546Z,57.04
2023-04-16T15:56:14.252Z,57.04
2023-04-16T15:58:44.674Z,56.23
2023-04-16T16:01:14.578Z,57.64
2023-04-16T16:03:42.941Z,58.88
2023-04-16T16:06:13.598Z,58.98
2023-04-16T16:08:44.247Z,59.66
2023-04-16T16:11:13.516Z,59.12
2023-04-16T16:13:44.342Z,59.31
2023-04-16T16:16:14.974Z,59.35
2023-04-16T16:18:44.969Z,60.07
2023-04-16T16:21:17.876Z,60.40
2023-04-16T16:23:46.813Z,61.08
2023-04-16T16:26:15.834Z,60.88
2023-04-16T16:28:46.293Z,60.78
2023-04-16T16:31:17.582Z,61.46
2023-04-16T16:33:48.717Z,61.87
2023-04-16T16:36:17.613Z,61.82
2023-04-16T16:38:47.895Z,61.79
2023-04-16T16:41:16.501Z,61.88
2023-04-16T16:43:45.331Z,61.80
2023-04-16T16:46:13.605Z,62.07
2023-04-16T16:48:44.286Z,62.22
2023-04-16T16:51:19.020Z,63.32
2023-04-16T16:53:47.441Z,63.59
2023-04-16T16:56:16.004Z,62.63
2023-04-16T16:58:47.528Z,63.49
2023-04-16T17:01:16.899Z,62.54
2023-04-16T17:03:46.582Z,62.79
2023-04-16T17:06:14.945Z,63.52
2023-04-16T17:08:43.583Z,63.98
2023-04-16T17:11:11.977Z,64.53
2023-04-16T17:13:40.674Z,64.25
2023-04-16T17:16:10.108Z,63.79
2023-04-16T17:18:40.822Z,64.33
2023-04-16T17:21:13.553Z,64.90
2023-04-16T17:23:45.058Z,65.66
2023-04-16T17:26:16.976Z,65.30
2023-04-16T17:28:46.678Z,64.78
2023-04-16T17:31:16.403Z,65.17
2023-04-16T17:33:49.489Z,65.39
2023-04-16T17:36:19.622Z,65.57
2023-04-16T17:38:47.864Z,65.97
2023-04-16T17:41:16.224Z,66.67
2023-04-16T17:43:44.860Z,66.43
2023-04-16T17:46:13.174Z,66.64
2023-04-16T17:48:42.270Z,66.28
2023-04-16T17:51:11.290Z,66.67
2023-04-16T17:53:42.614Z,66.58
2023-04-16T17:56:11.158Z,67.21
2023-04-16T17:58:40.453Z,66.97
2023-04-16T18:01:09.034Z,67.61
2023-04-16T18:03:38.710Z,67.50
2023-04-16T18:06:07.108Z,67.16
2023-04-16T18:08:37.130Z,67.51
2023-04-16T18:11:09.280Z,68.79
2023-04-16T18:13:39.805Z,68.07
2023-04-16T18:16:09.973Z,68.31
2023-04-16T18:18:37.981Z,68.53
2023-04-16T18:21:06.769Z,68.50
2023-04-16T18:23:36.817Z,68.76
2023-04-16T18:26:07.637Z,68.50
2023-04-16T18:28:39.769Z,68.24
2023-04-16T18:31:14.075Z,68.97
2023-04-16T18:36:21.195Z,70.13
2023-04-16T18:39:00.943Z,69.93
2023-04-16T18:41:30.934Z,70.63
2023-04-16T18:44:01.754Z,70.46
2023-04-16T18:46:30.576Z,71.25
2023-04-16T18:48:59.701Z,71.39
2023-04-16T18:51:28.627Z,71.52
2023-04-16T18:53:58.897Z,71.82
2023-04-16T18:56:27.031Z,72.25
2023-04-16T18:58:55.462Z,72.30
2023-04-16T19:01:25.636Z,72.14
2023-04-16T19:03:56.876Z,72.91
2023-04-16T19:06:28.282Z,73.20
2023-04-16T19:08:56.605Z,73.57
2023-04-16T19:11:25.737Z,74.01
2023-04-16T19:13:54.098Z,74.28
2023-04-16T19:16:22.464Z,74.01
2023-04-16T19:18:54.097Z,74.27
2023-04-16T19:21:22.668Z,73.98
2023-04-16T19:23:51.047Z,74.54
2023-04-16T19:26:19.573Z,74.66
2023-04-16T19:28:48.706Z,74.67
2023-04-16T19:31:18.942Z,74.52
2023-04-16T19:33:47.156Z,74.66
2023-04-16T19:36:17.638Z,74.14
2023-04-16T19:38:46.118Z,74.21
2023-04-16T19:41:16.921Z,73.68
2023-04-16T19:43:46.052Z,73.89
2023-04-16T19:46:16.916Z,73.85
2023-04-16T19:48:46.163Z,73.53
2023-04-16T19:51:17.747Z,73.31
2023-04-16T19:53:49.111Z,73.44
2023-04-16T19:56:17.649Z,73.50
2023-04-16T19:58:46.609Z,73.53
2023-04-16T20:01:16.992Z,73.55
2023-04-16T20:03:45.750Z,73.73
2023-04-16T20:06:17.544Z,73.54
2023-04-16T20:08:48.355Z,73.75
2023-04-16T20:11:17.701Z,73.78
2023-04-16T20:13:48.053Z,73.43
2023-04-16T20:16:17.488Z,73.48
2023-04-16T20:18:46.100Z,73.41
2023-04-16T20:21:15.445Z,73.75
2023-04-16T20:23:43.683Z,73.57
2023-04-16T20:26:15.335Z,73.18
2023-04-16T20:28:45.293Z,73.27
2023-04-16T20:31:14.980Z,72.92
2023-04-16T20:33:42.961Z,73.15
2023-04-16T20:36:11.820Z,73.00
2023-04-16T20:38:42.583Z,73.46
2023-04-16T20:41:25.425Z,73.64
2023-04-16T20:44:10.262Z,73.29
2023-04-16T20:46:40.304Z,73.27
2023-04-16T20:49:09.675Z,72.87
2023-04-16T20:51:39.821Z,73.20
2023-04-16T20:54:10.268Z,72.61
2023-04-16T20:56:38.469Z,72.99
2023-04-16T20:59:10.356Z,72.36
2023-04-16T21:01:38.898Z,72.91
2023-04-16T21:04:09.492Z,72.86
2023-04-16T21:06:38.766Z,73.39
2023-04-16T21:09:07.112Z,72.54
2023-04-16T21:11:36.125Z,72.09
2023-04-16T21:14:09.719Z,72.68
2023-04-16T21:16:40.675Z,71.98
2023-04-16T21:19:09.766Z,72.41
2023-04-16T21:21:40.086Z,71.26
2023-04-16T21:24:11.282Z,70.87
2023-04-16T21:26:46.395Z,71.20
2023-04-16T21:29:14.443Z,71.27
2023-04-16T21:31:46.623Z,72.01
2023-04-16T21:34:16.638Z,71.54
2023-04-16T21:36:46.818Z,71.99
2023-04-16T21:39:17.973Z,72.17
2023-04-16T21:41:46.069Z,72.43
2023-04-16T21:44:15.168Z,72.22
2023-04-16T21:46:46.680Z,72.35
2023-04-16T21:49:14.840Z,72.71
2023-04-16T21:51:46.158Z,72.76
2023-04-16T21:54:18.126Z,72.71
2023-04-16T21:56:46.260Z,72.41
2023-04-16T21:59:14.477Z,72.68
2023-04-16T22:01:44.553Z,72.51
2023-04-16T22:04:14.442Z,72.73
2023-04-16T22:06:43.804Z,72.73
2023-04-16T22:09:12.281Z,72.39
2023-04-16T22:11:40.884Z,72.71
2023-04-16T22:14:09.391Z,72.63
2023-04-16T22:16:40.207Z,72.57
2023-04-16T22:19:10.559Z,72.54
2023-04-16T22:21:38.726Z,72.45
2023-04-16T22:24:07.266Z,72.61
2023-04-16T22:26:36.260Z,72.86
2023-04-16T22:29:04.668Z,72.94
2023-04-16T22:31:34.440Z,73.06
2023-04-16T22:34:03.828Z,72.99
2023-04-16T22:36:34.219Z,73.28
2023-04-16T22:39:02.701Z,73.20
2023-04-16T22:41:31.278Z,73.49
2023-04-16T22:44:00.571Z,73.36
2023-04-16T22:46:31.628Z,73.14
2023-04-16T22:49:01.014Z,72.79
2023-04-16T22:51:30.768Z,72.77
2023-04-16T22:54:01.686Z,72.98
2023-04-16T22:56:31.742Z,72.87
2023-04-16T22:59:00.719Z,72.80
2023-04-16T23:01:29.495Z,73.20
2023-04-16T23:03:58.729Z,73.22
2023-04-16T23:06:28.828Z,72.62
2023-04-16T23:08:57.952Z,73.08
2023-04-16T23:11:28.750Z,72.94
2023-04-16T23:13:57.252Z,72.75
2023-04-16T23:16:28.005Z,72.77
2023-04-16T23:18:56.570Z,72.74
2023-04-16T23:21:25.490Z,72.66
2023-04-16T23:23:55.222Z,72.77
2023-04-16T23:26:23.745Z,73.19
2023-04-16T23:28:53.367Z,72.78
2023-04-16T23:31:22.425Z,72.66
2023-04-16T23:33:51.355Z,72.69
2023-04-16T23:36:19.302Z,73.12
2023-04-16T23:38:49.060Z,73.03
2023-04-16T23:41:18.252Z,72.92
2023-04-16T23:43:47.118Z,72.90
2023-04-16T23:46:17.747Z,72.84
2023-04-16T23:48:51.362Z,72.79
2023-04-16T23:51:21.146Z,72.63
2023-04-16T23:53:50.483Z,72.91
2023-04-16T23:56:18.704Z,73.23
2023-04-16T23:58:48.199Z,72.41
